Terminal Aerodrome Forecast
Issued by NWS Charleston, SC

Home | Current Version | Previous Version | Text Only | Print | Product List | Glossary On
Versions: 1 2 3 4 5 6 7 8 9 10 11 12 13 14 15 16 17 18 19 20 21 22 23 24 25 26
000
FTUS42 KCHS 030555 CCA
TAFCHS
TAF COR
KCHS 030555Z 0306/0406 19005KT P6SM VCSH FEW008 SCT020 BKN080
      TEMPO 0306/0309 6SM -SHRA BR BKN020
     FM031200 19009KT 6SM SHRA SCT025 OVC035
     FM031800 18012KT P6SM VCSH SCT030 BKN080
     FM040000 16005KT P6SM VCSH SCT025 BKN120=

USA.gov is the U.S. government's official web portal to all federal, state and local government web resources and services.